Apeldoorn, Netherlands
Current Conditions -  °F | °C
As of 3:39 PM on Wednesday 22 Oct 2014 (Local Time) from EHDL Reporting Station
Broken Clouds Broken Clouds  
Wind Chill: 52°   Ceiling: 5100
Heat Index: 52°   Visibility: 6mi
Dew Point: 46°   Wind: 12mph
Humidity: 82%   Direction: 310°NW
Pressure: 30.06"   Gusts: NA
Location:  52.21°N, 5.97°E
Report Text: EHDL 221339Z AUTO 31010KT 9999 SCT044 BKN051 BKN059 11/08 Q1018 BLU
Loading
Personal Weather Stations






























Interactive Weather Map
Tropical Storm Tracking
New forecast layout! Learn more

10-Day Weather Forecast

Advertisements
Track Severe Weather on mobile